sensor_id;sensor_type;location;lat;lon;timestamp;pressure;altitude;pressure_sealevel;temperature;humidity
49825;BME280;35714;55.708;37.478;2023-07-29T00:01:40;98435.44;;;16.70;79.35
49825;BME280;35714;55.708;37.478;2023-07-29T00:04:07;98425.09;;;16.67;79.03
49825;BME280;35714;55.708;37.478;2023-07-29T00:06:35;98437.06;;;16.71;78.56
49825;BME280;35714;55.708;37.478;2023-07-29T00:09:02;98428.84;;;16.71;78.85
49825;BME280;35714;55.708;37.478;2023-07-29T00:11:27;98441.44;;;16.72;78.83
49825;BME280;35714;55.708;37.478;2023-07-29T00:13:53;98453.19;;;16.72;78.58
49825;BME280;35714;55.708;37.478;2023-07-29T00:16:20;98460.78;;;16.75;78.82
49825;BME280;35714;55.708;37.478;2023-07-29T00:18:51;98464.88;;;16.78;78.25
49825;BME280;35714;55.708;37.478;2023-07-29T00:21:16;98466.50;;;16.79;78.23
49825;BME280;35714;55.708;37.478;2023-07-29T00:23:42;98469.75;;;16.81;78.51
49825;BME280;35714;55.708;37.478;2023-07-29T00:26:08;98465.91;;;16.82;78.27
49825;BME280;35714;55.708;37.478;2023-07-29T00:28:59;98455.56;;;16.79;78.31
49825;BME280;35714;55.708;37.478;2023-07-29T00:31:51;98441.34;;;16.77;77.54
49825;BME280;35714;55.708;37.478;2023-07-29T00:34:42;98447.34;;;16.79;77.66
49825;BME280;35714;55.708;37.478;2023-07-29T00:37:10;98450.44;;;16.72;77.86
49825;BME280;35714;55.708;37.478;2023-07-29T00:39:36;98455.41;;;16.70;77.59
49825;BME280;35714;55.708;37.478;2023-07-29T00:42:06;98447.00;;;16.67;77.71
49825;BME280;35714;55.708;37.478;2023-07-29T00:44:31;98444.56;;;16.65;77.61
49825;BME280;35714;55.708;37.478;2023-07-29T00:47:02;98429.53;;;16.63;77.48
49825;BME280;35714;55.708;37.478;2023-07-29T00:49:28;98444.34;;;16.62;77.28
49825;BME280;35714;55.708;37.478;2023-07-29T00:51:54;98430.13;;;16.59;77.31
49825;BME280;35714;55.708;37.478;2023-07-29T00:54:20;98424.16;;;16.57;77.13
49825;BME280;35714;55.708;37.478;2023-07-29T00:56:46;98424.44;;;16.56;77.43
49825;BME280;35714;55.708;37.478;2023-07-29T00:59:12;98423.66;;;16.55;77.51
49825;BME280;35714;55.708;37.478;2023-07-29T01:01:38;98424.75;;;16.54;77.31
49825;BME280;35714;55.708;37.478;2023-07-29T01:04:04;98431.31;;;16.53;77.04
49825;BME280;35714;55.708;37.478;2023-07-29T01:06:54;98430.72;;;16.56;77.03
49825;BME280;35714;55.708;37.478;2023-07-29T01:09:39;98428.28;;;16.55;77.38
49825;BME280;35714;55.708;37.478;2023-07-29T01:12:13;98422.00;;;16.54;77.45
49825;BME280;35714;55.708;37.478;2023-07-29T01:17:23;98404.34;;;16.47;77.24
49825;BME280;35714;55.708;37.478;2023-07-29T01:20:00;98404.78;;;16.54;77.39
49825;BME280;35714;55.708;37.478;2023-07-29T01:22:31;98393.63;;;16.50;77.53
49825;BME280;35714;55.708;37.478;2023-07-29T01:24:58;98396.94;;;16.47;77.47
49825;BME280;35714;55.708;37.478;2023-07-29T01:27:25;98394.22;;;16.47;77.45
49825;BME280;35714;55.708;37.478;2023-07-29T01:29:52;98392.38;;;16.42;77.22
49825;BME280;35714;55.708;37.478;2023-07-29T01:32:43;98384.91;;;16.48;77.23
49825;BME280;35714;55.708;37.478;2023-07-29T01:37:37;98379.59;;;16.38;77.10
49825;BME280;35714;55.708;37.478;2023-07-29T01:40:05;98393.50;;;16.41;77.11
49825;BME280;35714;55.708;37.478;2023-07-29T01:42:34;98386.09;;;16.42;77.27
49825;BME280;35714;55.708;37.478;2023-07-29T01:45:00;98383.44;;;16.37;77.02
49825;BME280;35714;55.708;37.478;2023-07-29T01:47:26;98378.47;;;16.39;76.88
49825;BME280;35714;55.708;37.478;2023-07-29T01:49:54;98385.88;;;16.38;76.98
49825;BME280;35714;55.708;37.478;2023-07-29T01:52:20;98381.53;;;16.37;76.66
49825;BME280;35714;55.708;37.478;2023-07-29T01:54:45;98392.66;;;16.41;77.27
49825;BME280;35714;55.708;37.478;2023-07-29T01:57:11;98393.78;;;16.40;76.93
49825;BME280;35714;55.708;37.478;2023-07-29T01:59:37;98392.16;;;16.39;76.94
49825;BME280;35714;55.708;37.478;2023-07-29T02:02:03;98388.81;;;16.42;77.34
49825;BME280;35714;55.708;37.478;2023-07-29T02:04:28;98395.63;;;16.45;77.04
49825;BME280;35714;55.708;37.478;2023-07-29T02:06:54;98385.78;;;16.44;77.33
49825;BME280;35714;55.708;37.478;2023-07-29T02:09:20;98402.50;;;16.42;76.98
49825;BME280;35714;55.708;37.478;2023-07-29T02:11:46;98406.28;;;16.46;77.23
49825;BME280;35714;55.708;37.478;2023-07-29T02:14:11;98417.72;;;16.48;76.72
49825;BME280;35714;55.708;37.478;2023-07-29T02:16:37;98425.66;;;16.50;77.37
49825;BME280;35714;55.708;37.478;2023-07-29T02:19:24;98436.28;;;16.51;77.12
49825;BME280;35714;55.708;37.478;2023-07-29T02:21:50;98434.88;;;16.54;77.42
49825;BME280;35714;55.708;37.478;2023-07-29T02:24:15;98436.19;;;16.56;77.06
49825;BME280;35714;55.708;37.478;2023-07-29T02:26:41;98432.97;;;16.54;77.35
49825;BME280;35714;55.708;37.478;2023-07-29T02:29:07;98446.03;;;16.57;77.68
49825;BME280;35714;55.708;37.478;2023-07-29T02:31:34;98441.06;;;16.59;77.15
49825;BME280;35714;55.708;37.478;2023-07-29T02:34:00;98441.06;;;16.59;77.17
49825;BME280;35714;55.708;37.478;2023-07-29T02:36:26;98444.34;;;16.62;77.29
49825;BME280;35714;55.708;37.478;2023-07-29T02:38:52;98437.84;;;16.57;77.31
49825;BME280;35714;55.708;37.478;2023-07-29T02:41:18;98445.16;;;16.62;77.24
49825;BME280;35714;55.708;37.478;2023-07-29T02:43:48;98443.72;;;16.65;77.16
49825;BME280;35714;55.708;37.478;2023-07-29T02:46:13;98438.25;;;16.65;77.51
49825;BME280;35714;55.708;37.478;2023-07-29T02:48:39;98438.25;;;16.65;77.51
49825;BME280;35714;55.708;37.478;2023-07-29T02:51:05;98422.97;;;16.64;77.54
49825;BME280;35714;55.708;37.478;2023-07-29T02:53:31;98420.22;;;16.64;77.27
49825;BME280;35714;55.708;37.478;2023-07-29T02:55:56;98416.97;;;16.62;77.49
49825;BME280;35714;55.708;37.478;2023-07-29T02:58:22;98408.78;;;16.62;77.34
49825;BME280;35714;55.708;37.478;2023-07-29T03:00:48;98416.97;;;16.62;77.58
49825;BME280;35714;55.708;37.478;2023-07-29T03:03:14;98404.41;;;16.60;78.05
49825;BME280;35714;55.708;37.478;2023-07-29T03:05:40;98400.56;;;16.62;77.96
49825;BME280;35714;55.708;37.478;2023-07-29T03:08:05;98407.13;;;16.60;77.95
49825;BME280;35714;55.708;37.478;2023-07-29T03:10:31;98410.88;;;16.65;77.62
49825;BME280;35714;55.708;37.478;2023-07-29T03:12:57;98393.34;;;16.66;77.96
49825;BME280;35714;55.708;37.478;2023-07-29T03:15:23;98391.94;;;16.68;78.15
49825;BME280;35714;55.708;37.478;2023-07-29T03:17:52;98394.38;;;16.70;77.59
49825;BME280;35714;55.708;37.478;2023-07-29T03:20:19;98393.25;;;16.71;77.78
49825;BME280;35714;55.708;37.478;2023-07-29T03:22:46;98387.47;;;16.72;77.67
49825;BME280;35714;55.708;37.478;2023-07-29T03:25:13;98391.06;;;16.73;77.48
49825;BME280;35714;55.708;37.478;2023-07-29T03:27:39;98377.88;;;16.75;77.38
49825;BME280;35714;55.708;37.478;2023-07-29T03:30:08;98381.94;;;16.77;77.48
49825;BME280;35714;55.708;37.478;2023-07-29T03:32:34;98376.75;;;16.76;77.51
49825;BME280;35714;55.708;37.478;2023-07-29T03:34:59;98378.28;;;16.82;77.48
49825;BME280;35714;55.708;37.478;2023-07-29T03:37:25;98378.78;;;16.84;77.15
49825;BME280;35714;55.708;37.478;2023-07-29T03:39:51;98369.72;;;16.89;77.04
49825;BME280;35714;55.708;37.478;2023-07-29T03:42:18;98357.13;;;16.88;77.36
49825;BME280;35714;55.708;37.478;2023-07-29T03:44:44;98366.56;;;16.95;76.91
49825;BME280;35714;55.708;37.478;2023-07-29T03:47:09;98368.41;;;17.00;77.35
49825;BME280;35714;55.708;37.478;2023-07-29T03:49:37;98368.59;;;17.04;76.64
49825;BME280;35714;55.708;37.478;2023-07-29T03:52:03;98361.41;;;17.08;76.95
49825;BME280;35714;55.708;37.478;2023-07-29T03:54:29;98350.94;;;17.10;76.64
49825;BME280;35714;55.708;37.478;2023-07-29T03:56:55;98354.41;;;17.16;76.31
49825;BME280;35714;55.708;37.478;2023-07-29T03:59:20;98347.53;;;17.18;76.18
49825;BME280;35714;55.708;37.478;2023-07-29T04:01:48;98338.16;;;17.19;76.65
49825;BME280;35714;55.708;37.478;2023-07-29T04:04:14;98341.41;;;17.21;76.41
49825;BME280;35714;55.708;37.478;2023-07-29T04:06:39;98339.81;;;17.20;75.75
49825;BME280;35714;55.708;37.478;2023-07-29T04:09:05;98330.44;;;17.21;75.48
49825;BME280;35714;55.708;37.478;2023-07-29T04:11:31;98341.94;;;17.23;75.91
49825;BME280;35714;55.708;37.478;2023-07-29T04:13:57;98335.91;;;17.21;75.46
49825;BME280;35714;55.708;37.478;2023-07-29T04:16:23;98346.38;;;17.19;75.69
49825;BME280;35714;55.708;37.478;2023-07-29T04:18:49;98340.53;;;17.12;75.53
49825;BME280;35714;55.708;37.478;2023-07-29T04:21:14;98338.38;;;17.09;75.67
49825;BME280;35714;55.708;37.478;2023-07-29T04:23:40;98341.94;;;17.09;75.96
49825;BME280;35714;55.708;37.478;2023-07-29T04:26:06;98340.81;;;17.10;75.66
49825;BME280;35714;55.708;37.478;2023-07-29T04:28:31;98329.66;;;17.07;75.36
49825;BME280;35714;55.708;37.478;2023-07-29T04:30:57;98343.88;;;17.09;76.07
49825;BME280;35714;55.708;37.478;2023-07-29T04:33:23;98343.25;;;17.12;76.00
49825;BME280;35714;55.708;37.478;2023-07-29T04:35:48;98348.13;;;17.15;75.62
49825;BME280;35714;55.708;37.478;2023-07-29T04:38:14;98342.03;;;17.18;75.56
49825;BME280;35714;55.708;37.478;2023-07-29T04:40:40;98334.94;;;17.17;75.49
49825;BME280;35714;55.708;37.478;2023-07-29T04:43:06;98336.22;;;17.20;75.24
49825;BME280;35714;55.708;37.478;2023-07-29T04:45:31;98335.31;;;17.24;75.58
49825;BME280;35714;55.708;37.478;2023-07-29T04:47:58;98357.75;;;17.26;75.29
49825;BME280;35714;55.708;37.478;2023-07-29T04:50:24;98347.00;;;17.30;75.10
49825;BME280;35714;55.708;37.478;2023-07-29T04:52:50;98345.03;;;17.30;75.10
49825;BME280;35714;55.708;37.478;2023-07-29T04:55:16;98344.97;;;17.36;75.04
49825;BME280;35714;55.708;37.478;2023-07-29T04:57:41;98341.19;;;17.31;74.69
49825;BME280;35714;55.708;37.478;2023-07-29T05:00:09;98347.69;;;17.36;74.95
49825;BME280;35714;55.708;37.478;2023-07-29T05:02:35;98338.97;;;17.34;74.60
49825;BME280;35714;55.708;37.478;2023-07-29T05:05:01;98335.00;;;17.40;74.87
49825;BME280;35714;55.708;37.478;2023-07-29T05:07:29;98333.28;;;17.44;74.80
49825;BME280;35714;55.708;37.478;2023-07-29T05:09:55;98326.47;;;17.41;74.02
49825;BME280;35714;55.708;37.478;2023-07-29T05:12:21;98342.28;;;17.44;74.05
49825;BME280;35714;55.708;37.478;2023-07-29T05:14:46;98340.16;;;17.41;74.19
49825;BME280;35714;55.708;37.478;2023-07-29T05:17:13;98325.16;;;17.39;73.89
49825;BME280;35714;55.708;37.478;2023-07-29T05:19:39;98333.28;;;17.44;73.89
49825;BME280;35714;55.708;37.478;2023-07-29T05:22:04;98322.00;;;17.45;73.74
49825;BME280;35714;55.708;37.478;2023-07-29T05:24:30;98322.50;;;17.47;73.94
49825;BME280;35714;55.708;37.478;2023-07-29T05:26:56;98319.94;;;17.51;73.29
49825;BME280;35714;55.708;37.478;2023-07-29T05:29:22;98309.50;;;17.53;73.09
49825;BME280;35714;55.708;37.478;2023-07-29T05:31:47;98314.38;;;17.56;72.93
49825;BME280;35714;55.708;37.478;2023-07-29T05:34:13;98312.63;;;17.60;73.10
49825;BME280;35714;55.708;37.478;2023-07-29T05:36:39;98312.00;;;17.63;72.67
49825;BME280;35714;55.708;37.478;2023-07-29T05:39:05;98317.47;;;17.63;72.86
49825;BME280;35714;55.708;37.478;2023-07-29T05:41:30;98312.00;;;17.63;72.33
49825;BME280;35714;55.708;37.478;2023-07-29T05:43:57;98313.63;;;17.64;72.69
49825;BME280;35714;55.708;37.478;2023-07-29T05:46:22;98318.00;;;17.65;72.51
49825;BME280;35714;55.708;37.478;2023-07-29T05:48:48;98324.28;;;17.66;72.47
49825;BME280;35714;55.708;37.478;2023-07-29T05:51:14;98319.00;;;17.70;72.78
49825;BME280;35714;55.708;37.478;2023-07-29T05:53:39;98321.94;;;17.73;72.70
49825;BME280;35714;55.708;37.478;2023-07-29T05:56:05;98328.91;;;17.79;72.82
49825;BME280;35714;55.708;37.478;2023-07-29T05:58:31;98330.72;;;17.84;72.23
49825;BME280;35714;55.708;37.478;2023-07-29T06:00:57;98338.88;;;17.89;71.94
49825;BME280;35714;55.708;37.478;2023-07-29T06:03:23;98332.78;;;17.92;72.15
49825;BME280;35714;55.708;37.478;2023-07-29T06:05:51;98334.91;;;17.95;71.86
49825;BME280;35714;55.708;37.478;2023-07-29T06:08:16;98335.22;;;17.94;71.41
49825;BME280;35714;55.708;37.478;2023-07-29T06:10:42;98343.13;;;17.95;71.60
49825;BME280;35714;55.708;37.478;2023-07-29T06:13:08;98339.25;;;17.96;71.33
49825;BME280;35714;55.708;37.478;2023-07-29T06:15:34;98346.38;;;17.97;71.14
49825;BME280;35714;55.708;37.478;2023-07-29T06:17:59;98356.72;;;18.00;71.43
49825;BME280;35714;55.708;37.478;2023-07-29T06:20:26;98355.25;;;18.03;71.59
49825;BME280;35714;55.708;37.478;2023-07-29T06:22:52;98367.44;;;18.11;71.36
49825;BME280;35714;55.708;37.478;2023-07-29T06:25:18;98364.06;;;18.14;71.21
49825;BME280;35714;55.708;37.478;2023-07-29T06:27:45;98367.34;;;18.16;71.32
49825;BME280;35714;55.708;37.478;2023-07-29T06:30:10;98360.03;;;18.11;70.81
49825;BME280;35714;55.708;37.478;2023-07-29T06:32:36;98368.84;;;18.22;71.16
49825;BME280;35714;55.708;37.478;2023-07-29T06:35:02;98370.44;;;18.23;70.93
49825;BME280;35714;55.708;37.478;2023-07-29T06:37:29;98368.84;;;18.22;70.72
49825;BME280;35714;55.708;37.478;2023-07-29T06:39:55;98373.31;;;18.18;70.98
49825;BME280;35714;55.708;37.478;2023-07-29T06:42:21;98377.38;;;18.20;70.91
49825;BME280;35714;55.708;37.478;2023-07-29T06:44:46;98382.47;;;18.13;70.53
49825;BME280;35714;55.708;37.478;2023-07-29T06:47:12;98385.34;;;18.08;70.82
49825;BME280;35714;55.708;37.478;2023-07-29T06:49:38;98384.03;;;18.06;70.84
49825;BME280;35714;55.708;37.478;2023-07-29T06:52:04;98387.38;;;18.02;71.18
49825;BME280;35714;55.708;37.478;2023-07-29T06:54:29;98386.69;;;17.97;71.22
49825;BME280;35714;55.708;37.478;2023-07-29T06:56:55;98390.38;;;17.92;71.35
49825;BME280;35714;55.708;37.478;2023-07-29T06:59:20;98393.72;;;17.89;71.54
49825;BME280;35714;55.708;37.478;2023-07-29T07:01:46;98390.25;;;17.83;71.48
49825;BME280;35714;55.708;37.478;2023-07-29T07:04:12;98397.16;;;17.81;71.93
49825;BME280;35714;55.708;37.478;2023-07-29T07:06:38;98401.34;;;17.78;71.72
49825;BME280;35714;55.708;37.478;2023-07-29T07:09:03;98400.50;;;17.78;72.49
49825;BME280;35714;55.708;37.478;2023-07-29T07:11:29;98399.41;;;17.79;72.45
49825;BME280;35714;55.708;37.478;2023-07-29T07:13:55;98396.16;;;17.77;72.28
49825;BME280;35714;55.708;37.478;2023-07-29T07:16:20;98388.44;;;17.79;72.58
49825;BME280;35714;55.708;37.478;2023-07-29T07:18:46;98394.94;;;17.83;72.86
49825;BME280;35714;55.708;37.478;2023-07-29T07:21:12;98391.06;;;17.84;72.54
49825;BME280;35714;55.708;37.478;2023-07-29T07:23:39;98391.25;;;17.88;72.90
49825;BME280;35714;55.708;37.478;2023-07-29T07:26:05;98392.69;;;17.85;72.51
49825;BME280;35714;55.708;37.478;2023-07-29T07:28:30;98394.94;;;17.83;72.46
49825;BME280;35714;55.708;37.478;2023-07-29T07:30:56;98396.84;;;17.82;72.86
49825;BME280;35714;55.708;37.478;2023-07-29T07:33:22;98399.81;;;17.86;73.11
49825;BME280;35714;55.708;37.478;2023-07-29T07:35:48;98396.97;;;17.91;72.76
49825;BME280;35714;55.708;37.478;2023-07-29T07:38:14;98399.59;;;17.96;72.68
49825;BME280;35714;55.708;37.478;2023-07-29T07:40:39;98401.09;;;18.02;72.67
49825;BME280;35714;55.708;37.478;2023-07-29T07:43:05;98399.69;;;18.05;72.44
49825;BME280;35714;55.708;37.478;2023-07-29T07:45:32;98393.88;;;18.07;72.71
49825;BME280;35714;55.708;37.478;2023-07-29T07:47:58;98391.63;;;18.09;72.26
49825;BME280;35714;55.708;37.478;2023-07-29T07:50:24;98388.66;;;18.19;72.94
49825;BME280;35714;55.708;37.478;2023-07-29T07:52:50;98386.66;;;18.33;72.77
49825;BME280;35714;55.708;37.478;2023-07-29T07:55:16;98400.81;;;18.49;72.36
49825;BME280;35714;55.708;37.478;2023-07-29T07:57:41;98401.38;;;18.60;70.97
49825;BME280;35714;55.708;37.478;2023-07-29T08:00:07;98404.38;;;18.72;71.19
49825;BME280;35714;55.708;37.478;2023-07-29T08:02:43;98397.38;;;18.89;71.00
49825;BME280;35714;55.708;37.478;2023-07-29T08:05:09;98393.72;;;19.02;70.80
49825;BME280;35714;55.708;37.478;2023-07-29T08:07:35;98395.00;;;19.05;70.03
49825;BME280;35714;55.708;37.478;2023-07-29T08:10:01;98402.16;;;19.15;69.82
49825;BME280;35714;55.708;37.478;2023-07-29T08:12:26;98398.66;;;19.23;69.67
49825;BME280;35714;55.708;37.478;2023-07-29T08:14:52;98407.22;;;19.30;69.71
49825;BME280;35714;55.708;37.478;2023-07-29T08:17:18;98399.50;;;19.32;69.10
49825;BME280;35714;55.708;37.478;2023-07-29T08:19:43;98394.63;;;19.29;69.22
49825;BME280;35714;55.708;37.478;2023-07-29T08:22:09;98404.38;;;19.35;69.08
49825;BME280;35714;55.708;37.478;2023-07-29T08:24:35;98408.88;;;19.31;68.90
49825;BME280;35714;55.708;37.478;2023-07-29T08:27:02;98401.75;;;19.30;69.00
49825;BME280;35714;55.708;37.478;2023-07-29T08:29:28;98411.97;;;19.38;68.58
49825;BME280;35714;55.708;37.478;2023-07-29T08:31:53;98405.69;;;19.46;68.72
49825;BME280;35714;55.708;37.478;2023-07-29T08:34:20;98406.66;;;19.51;68.26
49825;BME280;35714;55.708;37.478;2023-07-29T08:36:46;98413.78;;;19.52;68.07
49825;BME280;35714;55.708;37.478;2023-07-29T08:39:12;98409.41;;;19.51;67.81
49825;BME280;35714;55.708;37.478;2023-07-29T08:41:43;98411.50;;;19.54;67.91
49825;BME280;35714;55.708;37.478;2023-07-29T08:44:26;98410.44;;;19.63;67.53
49825;BME280;35714;55.708;37.478;2023-07-29T08:46:52;98419.97;;;19.66;67.60
49825;BME280;35714;55.708;37.478;2023-07-29T08:49:19;98409.78;;;19.67;67.46
49825;BME280;35714;55.708;37.478;2023-07-29T08:51:49;98417.25;;;19.75;67.34
49825;BME280;35714;55.708;37.478;2023-07-29T08:54:15;98409.66;;;19.80;67.68
49825;BME280;35714;55.708;37.478;2023-07-29T08:56:41;98406.28;;;19.83;67.24
49825;BME280;35714;55.708;37.478;2023-07-29T08:59:09;98400.13;;;19.87;67.35
49825;BME280;35714;55.708;37.478;2023-07-29T09:01:36;98406.47;;;19.87;66.99
49825;BME280;35714;55.708;37.478;2023-07-29T09:04:03;98403.53;;;19.83;67.03
49825;BME280;35714;55.708;37.478;2023-07-29T09:06:29;98405.94;;;19.85;66.77
49825;BME280;35714;55.708;37.478;2023-07-29T09:08:55;98401.72;;;19.79;66.62
49825;BME280;35714;55.708;37.478;2023-07-29T09:11:23;98401.69;;;19.70;66.43
49825;BME280;35714;55.708;37.478;2023-07-29T09:13:49;98392.13;;;19.59;66.34
49825;BME280;35714;55.708;37.478;2023-07-29T09:16:15;98405.06;;;19.50;66.82
49825;BME280;35714;55.708;37.478;2023-07-29T09:18:41;98403.72;;;19.38;66.74
49825;BME280;35714;55.708;37.478;2023-07-29T09:21:06;98401.63;;;19.35;66.83
49825;BME280;35714;55.708;37.478;2023-07-29T09:23:40;98389.94;;;19.29;67.06
49825;BME280;35714;55.708;37.478;2023-07-29T09:26:06;98402.75;;;19.34;67.14
49825;BME280;35714;55.708;37.478;2023-07-29T09:28:34;98407.59;;;19.37;67.24
49825;BME280;35714;55.708;37.478;2023-07-29T09:31:00;98409.41;;;19.42;67.21
49825;BME280;35714;55.708;37.478;2023-07-29T09:33:26;98413.44;;;19.44;67.22
49825;BME280;35714;55.708;37.478;2023-07-29T09:35:52;98403.91;;;19.51;66.80
49825;BME280;35714;55.708;37.478;2023-07-29T09:38:18;98414.25;;;19.54;66.78
49825;BME280;35714;55.708;37.478;2023-07-29T09:40:44;98410.88;;;19.57;66.82
49825;BME280;35714;55.708;37.478;2023-07-29T09:43:11;98411.38;;;19.59;66.79
49825;BME280;35714;55.708;37.478;2023-07-29T09:45:37;98414.94;;;19.59;66.49
49825;BME280;35714;55.708;37.478;2023-07-29T09:48:04;98416.38;;;19.57;66.41
49825;BME280;35714;55.708;37.478;2023-07-29T09:50:35;98421.56;;;19.50;66.44
49825;BME280;35714;55.708;37.478;2023-07-29T09:53:02;98427.81;;;19.41;66.25
49825;BME280;35714;55.708;37.478;2023-07-29T09:55:29;98419.72;;;19.36;66.37
49825;BME280;35714;55.708;37.478;2023-07-29T09:57:59;98427.31;;;19.39;66.63
49825;BME280;35714;55.708;37.478;2023-07-29T10:00:31;98423.47;;;19.49;66.52
49825;BME280;35714;55.708;37.478;2023-07-29T10:02:58;98424.97;;;19.64;66.33
49825;BME280;35714;55.708;37.478;2023-07-29T10:05:28;98421.50;;;19.81;65.48
49825;BME280;35714;55.708;37.478;2023-07-29T10:07:55;98417.63;;;19.91;65.16
49825;BME280;35714;55.708;37.478;2023-07-29T10:10:21;98426.03;;;20.12;64.92
49825;BME280;35714;55.708;37.478;2023-07-29T10:12:47;98429.78;;;20.25;64.80
49825;BME280;35714;55.708;37.478;2023-07-29T10:15:13;98422.97;;;20.31;64.98
49825;BME280;35714;55.708;37.478;2023-07-29T10:17:39;98429.63;;;20.38;64.90
49825;BME280;35714;55.708;37.478;2023-07-29T10:20:09;98429.63;;;20.38;64.96
49825;BME280;35714;55.708;37.478;2023-07-29T10:22:41;98429.94;;;20.37;64.94
49825;BME280;35714;55.708;37.478;2023-07-29T10:25:16;98437.88;;;20.47;64.59
49825;BME280;35714;55.708;37.478;2023-07-29T10:27:47;98442.75;;;20.50;64.53
49825;BME280;35714;55.708;37.478;2023-07-29T10:30:13;98428.63;;;20.61;64.37
49825;BME280;35714;55.708;37.478;2023-07-29T10:32:42;98444.06;;;20.70;63.85
49825;BME280;35714;55.708;37.478;2023-07-29T10:35:15;98428.81;;;20.73;63.51
49825;BME280;35714;55.708;37.478;2023-07-29T10:37:42;98433.97;;;20.75;63.13
49825;BME280;35714;55.708;37.478;2023-07-29T10:40:09;98433.00;;;20.79;62.70
49825;BME280;35714;55.708;37.478;2023-07-29T10:43:06;98431.53;;;20.90;62.32
49825;BME280;35714;55.708;37.478;2023-07-29T10:45:41;98427.63;;;20.91;62.24
49825;BME280;35714;55.708;37.478;2023-07-29T10:48:12;98426.13;;;21.03;61.66
49825;BME280;35714;55.708;37.478;2023-07-29T10:50:38;98423.88;;;21.05;60.82
49825;BME280;35714;55.708;37.478;2023-07-29T10:53:04;98415.75;;;21.08;60.95
49825;BME280;35714;55.708;37.478;2023-07-29T10:55:34;98414.13;;;21.07;60.48
49825;BME280;35714;55.708;37.478;2023-07-29T10:58:22;98422.31;;;21.25;60.49
49825;BME280;35714;55.708;37.478;2023-07-29T11:00:49;98422.66;;;21.23;60.36
49825;BME280;35714;55.708;37.478;2023-07-29T11:03:14;98416.00;;;21.24;60.14
49825;BME280;35714;55.708;37.478;2023-07-29T11:05:48;98422.31;;;21.25;60.51
49825;BME280;35714;55.708;37.478;2023-07-29T11:08:28;98429.47;;;21.26;60.08
49825;BME280;35714;55.708;37.478;2023-07-29T11:11:01;98429.00;;;21.24;59.93
49825;BME280;35714;55.708;37.478;2023-07-29T11:13:31;98430.28;;;21.26;60.33
49825;BME280;35714;55.708;37.478;2023-07-29T11:15:58;98439.03;;;21.29;60.38
49825;BME280;35714;55.708;37.478;2023-07-29T11:18:32;98434.94;;;21.35;59.66
49825;BME280;35714;55.708;37.478;2023-07-29T11:21:00;98428.44;;;21.39;59.88
49825;BME280;35714;55.708;37.478;2023-07-29T11:23:36;98427.56;;;21.56;59.28
49825;BME280;35714;55.708;37.478;2023-07-29T11:26:03;98427.34;;;21.70;59.34
49825;BME280;35714;55.708;37.478;2023-07-29T11:28:29;98430.31;;;21.86;58.58
49825;BME280;35714;55.708;37.478;2023-07-29T11:30:56;98430.19;;;22.04;58.39
49825;BME280;35714;55.708;37.478;2023-07-29T11:33:26;98428.19;;;22.13;57.98
49825;BME280;35714;55.708;37.478;2023-07-29T11:35:54;98432.13;;;22.12;57.88
49825;BME280;35714;55.708;37.478;2023-07-29T11:38:21;98443.28;;;22.15;57.83
49825;BME280;35714;55.708;37.478;2023-07-29T11:40:58;98447.06;;;22.11;56.95
49825;BME280;35714;55.708;37.478;2023-07-29T11:43:24;98445.84;;;21.99;57.53
49825;BME280;35714;55.708;37.478;2023-07-29T11:45:51;98454.97;;;21.91;57.37
49825;BME280;35714;55.708;37.478;2023-07-29T11:48:17;98469.97;;;21.81;57.62
49825;BME280;35714;55.708;37.478;2023-07-29T11:50:43;98473.13;;;21.71;57.96
49825;BME280;35714;55.708;37.478;2023-07-29T11:53:10;98471.88;;;21.60;58.41
49825;BME280;35714;55.708;37.478;2023-07-29T11:55:36;98465.53;;;21.59;58.78
49825;BME280;35714;55.708;37.478;2023-07-29T11:58:02;98462.78;;;21.59;59.09
49825;BME280;35714;55.708;37.478;2023-07-29T12:00:28;98460.00;;;21.59;58.93
49825;BME280;35714;55.708;37.478;2023-07-29T12:02:54;98467.81;;;21.57;58.70
49825;BME280;35714;55.708;37.478;2023-07-29T12:05:22;98468.47;;;21.54;58.94
49825;BME280;35714;55.708;37.478;2023-07-29T12:07:48;98465.91;;;21.49;58.67
49825;BME280;35714;55.708;37.478;2023-07-29T12:10:14;98461.53;;;21.39;58.84
49825;BME280;35714;55.708;37.478;2023-07-29T12:12:47;98463.66;;;21.34;58.68
49825;BME280;35714;55.708;37.478;2023-07-29T12:15:25;98459.47;;;21.27;58.87
49825;BME280;35714;55.708;37.478;2023-07-29T12:17:56;98459.81;;;21.17;58.97
49825;BME280;35714;55.708;37.478;2023-07-29T12:20:22;98458.69;;;21.09;59.07
49825;BME280;35714;55.708;37.478;2023-07-29T12:22:55;98451.91;;;21.07;59.57
49825;BME280;35714;55.708;37.478;2023-07-29T12:25:21;98454.34;;;21.00;59.87
49825;BME280;35714;55.708;37.478;2023-07-29T12:27:47;98461.19;;;20.94;59.92
49825;BME280;35714;55.708;37.478;2023-07-29T12:30:13;98451.31;;;20.84;60.35
49825;BME280;35714;55.708;37.478;2023-07-29T12:32:45;98451.16;;;20.80;60.43
49825;BME280;35714;55.708;37.478;2023-07-29T12:35:12;98459.59;;;20.75;60.70
49825;BME280;35714;55.708;37.478;2023-07-29T12:37:38;98450.22;;;20.67;60.47
49825;BME280;35714;55.708;37.478;2023-07-29T12:40:08;98451.16;;;20.63;60.68
49825;BME280;35714;55.708;37.478;2023-07-29T12:42:34;98446.78;;;20.53;59.65
49825;BME280;35714;55.708;37.478;2023-07-29T12:45:00;98445.97;;;20.52;59.48
49825;BME280;35714;55.708;37.478;2023-07-29T12:47:26;98445.03;;;20.48;59.36
49825;BME280;35714;55.708;37.478;2023-07-29T12:49:51;98451.31;;;20.49;59.22
49825;BME280;35714;55.708;37.478;2023-07-29T12:52:17;98443.88;;;20.49;59.43
49825;BME280;35714;55.708;37.478;2023-07-29T12:54:43;98451.19;;;20.45;59.25
49825;BME280;35714;55.708;37.478;2023-07-29T12:57:09;98444.22;;;20.39;58.69